sensor_id;sensor_type;location;lat;lon;timestamp;P1;durP1;ratioP1;P2;durP2;ratioP2
14876;SDS011;69691;48.172;17.070;2024-03-29T00:01:32;3.40;;;2.60;;
14876;SDS011;69691;48.172;17.070;2024-03-29T00:03:58;2.67;;;2.47;;
14876;SDS011;69691;48.172;17.070;2024-03-29T00:06:23;4.53;;;2.60;;
14876;SDS011;69691;48.172;17.070;2024-03-29T00:08:49;3.65;;;3.20;;
14876;SDS011;69691;48.172;17.070;2024-03-29T00:11:15;5.00;;;3.65;;
14876;SDS011;69691;48.172;17.070;2024-03-29T00:13:41;5.85;;;4.68;;
14876;SDS011;69691;48.172;17.070;2024-03-29T00:16:07;6.80;;;5.53;;
14876;SDS011;69691;48.172;17.070;2024-03-29T00:18:33;8.82;;;5.50;;
14876;SDS011;69691;48.172;17.070;2024-03-29T00:20:59;7.75;;;5.00;;
14876;SDS011;69691;48.172;17.070;2024-03-29T00:23:25;8.15;;;5.75;;
14876;SDS011;69691;48.172;17.070;2024-03-29T00:25:50;6.47;;;4.97;;
14876;SDS011;69691;48.172;17.070;2024-03-29T00:28:16;4.97;;;4.00;;
14876;SDS011;69691;48.172;17.070;2024-03-29T00:30:42;4.78;;;4.15;;
14876;SDS011;69691;48.172;17.070;2024-03-29T00:33:09;4.60;;;3.85;;
14876;SDS011;69691;48.172;17.070;2024-03-29T00:35:34;7.20;;;4.50;;
14876;SDS011;69691;48.172;17.070;2024-03-29T00:38:00;4.68;;;3.72;;
14876;SDS011;69691;48.172;17.070;2024-03-29T00:40:26;3.65;;;3.15;;
14876;SDS011;69691;48.172;17.070;2024-03-29T00:42:52;3.60;;;3.30;;
14876;SDS011;69691;48.172;17.070;2024-03-29T00:45:18;5.10;;;2.97;;
14876;SDS011;69691;48.172;17.070;2024-03-29T00:47:43;5.55;;;2.97;;
14876;SDS011;69691;48.172;17.070;2024-03-29T00:50:09;4.07;;;2.90;;
14876;SDS011;69691;48.172;17.070;2024-03-29T00:52:35;4.95;;;3.13;;
14876;SDS011;69691;48.172;17.070;2024-03-29T00:55:01;3.15;;;2.78;;
14876;SDS011;69691;48.172;17.070;2024-03-29T00:57:28;3.78;;;3.10;;
14876;SDS011;69691;48.172;17.070;2024-03-29T00:59:54;4.13;;;3.33;;
14876;SDS011;69691;48.172;17.070;2024-03-29T01:02:22;7.28;;;3.33;;
14876;SDS011;69691;48.172;17.070;2024-03-29T01:04:48;4.25;;;3.25;;
14876;SDS011;69691;48.172;17.070;2024-03-29T01:07:15;4.35;;;3.20;;
14876;SDS011;69691;48.172;17.070;2024-03-29T01:09:42;5.28;;;3.50;;
14876;SDS011;69691;48.172;17.070;2024-03-29T01:12:09;4.65;;;3.53;;
14876;SDS011;69691;48.172;17.070;2024-03-29T01:14:35;4.72;;;3.17;;
14876;SDS011;69691;48.172;17.070;2024-03-29T01:17:02;5.97;;;3.05;;
14876;SDS011;69691;48.172;17.070;2024-03-29T01:19:28;3.83;;;2.53;;
14876;SDS011;69691;48.172;17.070;2024-03-29T01:21:54;5.90;;;3.03;;
14876;SDS011;69691;48.172;17.070;2024-03-29T01:24:20;4.38;;;3.58;;
14876;SDS011;69691;48.172;17.070;2024-03-29T01:26:45;4.22;;;3.15;;
14876;SDS011;69691;48.172;17.070;2024-03-29T01:29:12;4.30;;;3.80;;
14876;SDS011;69691;48.172;17.070;2024-03-29T01:31:37;5.90;;;3.70;;
14876;SDS011;69691;48.172;17.070;2024-03-29T01:34:03;7.25;;;3.85;;
14876;SDS011;69691;48.172;17.070;2024-03-29T01:36:29;4.03;;;3.55;;
14876;SDS011;69691;48.172;17.070;2024-03-29T01:38:55;5.60;;;3.70;;
14876;SDS011;69691;48.172;17.070;2024-03-29T01:41:23;4.43;;;3.60;;
14876;SDS011;69691;48.172;17.070;2024-03-29T01:43:52;4.40;;;3.28;;
14876;SDS011;69691;48.172;17.070;2024-03-29T01:46:27;4.32;;;3.80;;
14876;SDS011;69691;48.172;17.070;2024-03-29T01:48:53;6.70;;;3.83;;
14876;SDS011;69691;48.172;17.070;2024-03-29T01:51:21;5.25;;;4.10;;
14876;SDS011;69691;48.172;17.070;2024-03-29T01:53:48;4.97;;;3.40;;
14876;SDS011;69691;48.172;17.070;2024-03-29T01:56:18;3.80;;;2.95;;
14876;SDS011;69691;48.172;17.070;2024-03-29T01:58:48;4.18;;;3.22;;
14876;SDS011;69691;48.172;17.070;2024-03-29T02:01:16;4.05;;;3.20;;
14876;SDS011;69691;48.172;17.070;2024-03-29T02:03:43;4.18;;;3.00;;
14876;SDS011;69691;48.172;17.070;2024-03-29T02:06:09;3.30;;;2.80;;
14876;SDS011;69691;48.172;17.070;2024-03-29T02:08:35;3.00;;;2.63;;
14876;SDS011;69691;48.172;17.070;2024-03-29T02:11:01;3.17;;;2.88;;
14876;SDS011;69691;48.172;17.070;2024-03-29T02:13:29;4.57;;;2.70;;
14876;SDS011;69691;48.172;17.070;2024-03-29T02:15:55;4.10;;;2.60;;
14876;SDS011;69691;48.172;17.070;2024-03-29T02:18:21;3.40;;;2.70;;
14876;SDS011;69691;48.172;17.070;2024-03-29T02:20:46;6.32;;;3.78;;
14876;SDS011;69691;48.172;17.070;2024-03-29T02:23:32;4.15;;;3.28;;
14876;SDS011;69691;48.172;17.070;2024-03-29T02:26:01;4.35;;;3.45;;
14876;SDS011;69691;48.172;17.070;2024-03-29T02:28:30;5.65;;;3.90;;
14876;SDS011;69691;48.172;17.070;2024-03-29T02:30:56;5.82;;;3.33;;
14876;SDS011;69691;48.172;17.070;2024-03-29T02:33:22;4.63;;;3.55;;
14876;SDS011;69691;48.172;17.070;2024-03-29T02:35:49;3.60;;;3.30;;
14876;SDS011;69691;48.172;17.070;2024-03-29T02:38:15;3.95;;;3.25;;
14876;SDS011;69691;48.172;17.070;2024-03-29T02:40:40;5.93;;;2.92;;
14876;SDS011;69691;48.172;17.070;2024-03-29T02:43:06;4.85;;;3.10;;
14876;SDS011;69691;48.172;17.070;2024-03-29T02:45:32;2.95;;;2.53;;
14876;SDS011;69691;48.172;17.070;2024-03-29T02:47:58;3.92;;;2.70;;
14876;SDS011;69691;48.172;17.070;2024-03-29T02:50:24;4.90;;;3.15;;
14876;SDS011;69691;48.172;17.070;2024-03-29T02:52:50;6.85;;;3.15;;
14876;SDS011;69691;48.172;17.070;2024-03-29T02:55:15;4.72;;;2.90;;
14876;SDS011;69691;48.172;17.070;2024-03-29T02:57:41;4.00;;;3.30;;
14876;SDS011;69691;48.172;17.070;2024-03-29T03:00:07;5.95;;;3.53;;
14876;SDS011;69691;48.172;17.070;2024-03-29T03:02:40;3.63;;;3.25;;
14876;SDS011;69691;48.172;17.070;2024-03-29T03:05:06;5.57;;;3.42;;
14876;SDS011;69691;48.172;17.070;2024-03-29T03:07:33;3.63;;;3.25;;
14876;SDS011;69691;48.172;17.070;2024-03-29T03:10:19;5.25;;;2.97;;
14876;SDS011;69691;48.172;17.070;2024-03-29T03:13:03;2.25;;;2.08;;
14876;SDS011;69691;48.172;17.070;2024-03-29T03:15:29;2.17;;;1.98;;
14876;SDS011;69691;48.172;17.070;2024-03-29T03:17:55;2.28;;;2.08;;
14876;SDS011;69691;48.172;17.070;2024-03-29T03:20:21;2.42;;;2.22;;
14876;SDS011;69691;48.172;17.070;2024-03-29T03:22:48;4.05;;;3.00;;
14876;SDS011;69691;48.172;17.070;2024-03-29T03:25:16;3.15;;;2.40;;
14876;SDS011;69691;48.172;17.070;2024-03-29T03:27:42;7.57;;;2.80;;
14876;SDS011;69691;48.172;17.070;2024-03-29T03:30:08;3.22;;;2.45;;
14876;SDS011;69691;48.172;17.070;2024-03-29T03:32:34;3.03;;;2.03;;
14876;SDS011;69691;48.172;17.070;2024-03-29T03:35:00;2.50;;;2.30;;
14876;SDS011;69691;48.172;17.070;2024-03-29T03:37:26;2.30;;;2.10;;
14876;SDS011;69691;48.172;17.070;2024-03-29T03:39:52;3.05;;;2.17;;
14876;SDS011;69691;48.172;17.070;2024-03-29T03:42:17;2.05;;;1.90;;
14876;SDS011;69691;48.172;17.070;2024-03-29T03:44:43;2.40;;;2.20;;
14876;SDS011;69691;48.172;17.070;2024-03-29T03:47:09;2.58;;;2.38;;
14876;SDS011;69691;48.172;17.070;2024-03-29T03:49:35;5.80;;;2.42;;
14876;SDS011;69691;48.172;17.070;2024-03-29T03:52:01;2.67;;;2.08;;
14876;SDS011;69691;48.172;17.070;2024-03-29T03:54:27;2.60;;;2.40;;
14876;SDS011;69691;48.172;17.070;2024-03-29T03:56:54;2.30;;;2.10;;
14876;SDS011;69691;48.172;17.070;2024-03-29T03:59:20;2.70;;;2.50;;
14876;SDS011;69691;48.172;17.070;2024-03-29T04:01:46;3.45;;;2.38;;
14876;SDS011;69691;48.172;17.070;2024-03-29T04:04:12;3.22;;;2.47;;
14876;SDS011;69691;48.172;17.070;2024-03-29T04:06:38;3.35;;;2.20;;
14876;SDS011;69691;48.172;17.070;2024-03-29T04:09:04;3.00;;;2.70;;
14876;SDS011;69691;48.172;17.070;2024-03-29T04:11:29;2.60;;;2.40;;
14876;SDS011;69691;48.172;17.070;2024-03-29T04:13:55;3.58;;;2.55;;
14876;SDS011;69691;48.172;17.070;2024-03-29T04:16:21;3.50;;;2.63;;
14876;SDS011;69691;48.172;17.070;2024-03-29T04:18:47;4.03;;;2.55;;
14876;SDS011;69691;48.172;17.070;2024-03-29T04:21:13;16.17;;;2.97;;
14876;SDS011;69691;48.172;17.070;2024-03-29T04:23:38;2.88;;;2.67;;
14876;SDS011;69691;48.172;17.070;2024-03-29T04:26:04;4.30;;;2.63;;
14876;SDS011;69691;48.172;17.070;2024-03-29T04:28:30;4.18;;;2.30;;
14876;SDS011;69691;48.172;17.070;2024-03-29T04:30:57;4.88;;;2.33;;
14876;SDS011;69691;48.172;17.070;2024-03-29T04:33:25;2.85;;;2.55;;
14876;SDS011;69691;48.172;17.070;2024-03-29T04:35:55;3.53;;;2.13;;
14876;SDS011;69691;48.172;17.070;2024-03-29T04:38:22;4.95;;;2.25;;
14876;SDS011;69691;48.172;17.070;2024-03-29T04:40:48;2.25;;;2.10;;
14876;SDS011;69691;48.172;17.070;2024-03-29T04:43:16;4.15;;;2.08;;
14876;SDS011;69691;48.172;17.070;2024-03-29T04:45:43;2.78;;;2.00;;
14876;SDS011;69691;48.172;17.070;2024-03-29T04:48:10;2.50;;;1.92;;
14876;SDS011;69691;48.172;17.070;2024-03-29T04:50:37;1.95;;;1.85;;
14876;SDS011;69691;48.172;17.070;2024-03-29T04:53:02;2.63;;;2.42;;
14876;SDS011;69691;48.172;17.070;2024-03-29T04:55:29;3.05;;;2.10;;
14876;SDS011;69691;48.172;17.070;2024-03-29T04:57:55;2.88;;;2.40;;
14876;SDS011;69691;48.172;17.070;2024-03-29T05:00:21;3.15;;;2.45;;
14876;SDS011;69691;48.172;17.070;2024-03-29T05:02:47;2.50;;;2.20;;
14876;SDS011;69691;48.172;17.070;2024-03-29T05:05:13;2.40;;;2.10;;
14876;SDS011;69691;48.172;17.070;2024-03-29T05:07:39;1.98;;;1.80;;
14876;SDS011;69691;48.172;17.070;2024-03-29T05:10:04;1.90;;;1.80;;
14876;SDS011;69691;48.172;17.070;2024-03-29T05:12:35;3.47;;;2.20;;
14876;SDS011;69691;48.172;17.070;2024-03-29T05:15:01;4.68;;;2.13;;
14876;SDS011;69691;48.172;17.070;2024-03-29T05:17:27;4.75;;;2.53;;
14876;SDS011;69691;48.172;17.070;2024-03-29T05:19:53;2.47;;;2.25;;
14876;SDS011;69691;48.172;17.070;2024-03-29T05:22:19;4.45;;;2.13;;
14876;SDS011;69691;48.172;17.070;2024-03-29T05:24:46;3.10;;;2.63;;
14876;SDS011;69691;48.172;17.070;2024-03-29T05:27:12;7.28;;;2.30;;
14876;SDS011;69691;48.172;17.070;2024-03-29T05:29:39;2.35;;;2.10;;
14876;SDS011;69691;48.172;17.070;2024-03-29T05:32:05;4.93;;;2.30;;
14876;SDS011;69691;48.172;17.070;2024-03-29T05:34:32;3.50;;;2.45;;
14876;SDS011;69691;48.172;17.070;2024-03-29T05:36:58;5.47;;;2.80;;
14876;SDS011;69691;48.172;17.070;2024-03-29T05:39:24;3.67;;;2.88;;
14876;SDS011;69691;48.172;17.070;2024-03-29T05:41:50;8.68;;;6.40;;
14876;SDS011;69691;48.172;17.070;2024-03-29T05:44:15;12.05;;;7.95;;
14876;SDS011;69691;48.172;17.070;2024-03-29T05:46:42;11.45;;;7.57;;
14876;SDS011;69691;48.172;17.070;2024-03-29T05:49:08;10.68;;;7.25;;
14876;SDS011;69691;48.172;17.070;2024-03-29T05:51:34;10.88;;;7.25;;
14876;SDS011;69691;48.172;17.070;2024-03-29T05:54:00;9.85;;;6.80;;
14876;SDS011;69691;48.172;17.070;2024-03-29T05:56:29;9.90;;;7.15;;
14876;SDS011;69691;48.172;17.070;2024-03-29T05:58:55;10.93;;;6.30;;
14876;SDS011;69691;48.172;17.070;2024-03-29T06:01:21;8.02;;;6.25;;
14876;SDS011;69691;48.172;17.070;2024-03-29T06:03:48;6.35;;;5.50;;
14876;SDS011;69691;48.172;17.070;2024-03-29T06:06:20;5.40;;;4.63;;
14876;SDS011;69691;48.172;17.070;2024-03-29T06:08:49;5.18;;;4.68;;
14876;SDS011;69691;48.172;17.070;2024-03-29T06:11:16;5.70;;;4.60;;
14876;SDS011;69691;48.172;17.070;2024-03-29T06:13:42;8.20;;;3.65;;
14876;SDS011;69691;48.172;17.070;2024-03-29T06:16:27;3.85;;;3.25;;
14876;SDS011;69691;48.172;17.070;2024-03-29T06:19:12;4.88;;;3.38;;
14876;SDS011;69691;48.172;17.070;2024-03-29T06:21:38;3.72;;;3.00;;
14876;SDS011;69691;48.172;17.070;2024-03-29T06:24:05;5.43;;;2.67;;
14876;SDS011;69691;48.172;17.070;2024-03-29T06:26:39;5.32;;;3.10;;
14876;SDS011;69691;48.172;17.070;2024-03-29T06:29:06;3.80;;;2.90;;
14876;SDS011;69691;48.172;17.070;2024-03-29T06:31:35;3.90;;;3.20;;
14876;SDS011;69691;48.172;17.070;2024-03-29T06:34:01;3.75;;;2.97;;
14876;SDS011;69691;48.172;17.070;2024-03-29T06:36:27;4.63;;;3.88;;
14876;SDS011;69691;48.172;17.070;2024-03-29T06:38:55;3.58;;;3.28;;
14876;SDS011;69691;48.172;17.070;2024-03-29T06:41:21;3.60;;;3.25;;
14876;SDS011;69691;48.172;17.070;2024-03-29T06:43:47;4.30;;;3.67;;
14876;SDS011;69691;48.172;17.070;2024-03-29T06:46:13;4.05;;;3.63;;
14876;SDS011;69691;48.172;17.070;2024-03-29T06:48:40;4.70;;;3.65;;
14876;SDS011;69691;48.172;17.070;2024-03-29T06:51:06;4.55;;;3.83;;
14876;SDS011;69691;48.172;17.070;2024-03-29T06:53:32;4.20;;;3.80;;
14876;SDS011;69691;48.172;17.070;2024-03-29T06:55:59;4.32;;;3.70;;
14876;SDS011;69691;48.172;17.070;2024-03-29T06:58:28;5.10;;;4.05;;
14876;SDS011;69691;48.172;17.070;2024-03-29T07:00:54;5.32;;;4.30;;
14876;SDS011;69691;48.172;17.070;2024-03-29T07:03:20;5.28;;;4.78;;
14876;SDS011;69691;48.172;17.070;2024-03-29T07:05:46;6.82;;;4.00;;
14876;SDS011;69691;48.172;17.070;2024-03-29T07:08:12;5.20;;;4.70;;
14876;SDS011;69691;48.172;17.070;2024-03-29T07:10:39;6.18;;;4.78;;
14876;SDS011;69691;48.172;17.070;2024-03-29T07:13:07;4.82;;;4.43;;
14876;SDS011;69691;48.172;17.070;2024-03-29T07:15:35;4.70;;;4.22;;
14876;SDS011;69691;48.172;17.070;2024-03-29T07:18:01;4.20;;;3.75;;
14876;SDS011;69691;48.172;17.070;2024-03-29T07:20:30;3.60;;;3.30;;
14876;SDS011;69691;48.172;17.070;2024-03-29T07:22:56;6.15;;;3.00;;
14876;SDS011;69691;48.172;17.070;2024-03-29T07:25:22;7.60;;;3.20;;
14876;SDS011;69691;48.172;17.070;2024-03-29T07:27:47;3.50;;;3.20;;
14876;SDS011;69691;48.172;17.070;2024-03-29T07:30:15;3.50;;;3.20;;
14876;SDS011;69691;48.172;17.070;2024-03-29T07:32:41;4.43;;;2.35;;
14876;SDS011;69691;48.172;17.070;2024-03-29T07:35:07;3.05;;;2.38;;
14876;SDS011;69691;48.172;17.070;2024-03-29T07:37:33;2.60;;;2.40;;
14876;SDS011;69691;48.172;17.070;2024-03-29T07:39:59;3.47;;;2.20;;
14876;SDS011;69691;48.172;17.070;2024-03-29T07:42:25;2.15;;;2.00;;
14876;SDS011;69691;48.172;17.070;2024-03-29T07:44:51;2.42;;;2.22;;
14876;SDS011;69691;48.172;17.070;2024-03-29T07:47:18;2.38;;;2.13;;
14876;SDS011;69691;48.172;17.070;2024-03-29T07:49:43;3.00;;;2.20;;
14876;SDS011;69691;48.172;17.070;2024-03-29T07:52:11;2.00;;;1.90;;
14876;SDS011;69691;48.172;17.070;2024-03-29T07:54:37;1.90;;;1.80;;
14876;SDS011;69691;48.172;17.070;2024-03-29T07:57:03;5.50;;;2.40;;
14876;SDS011;69691;48.172;17.070;2024-03-29T07:59:31;2.25;;;1.90;;
14876;SDS011;69691;48.172;17.070;2024-03-29T08:01:56;3.58;;;2.22;;
14876;SDS011;69691;48.172;17.070;2024-03-29T08:04:23;2.15;;;1.98;;
14876;SDS011;69691;48.172;17.070;2024-03-29T08:06:51;3.03;;;2.10;;
14876;SDS011;69691;48.172;17.070;2024-03-29T08:09:17;2.50;;;2.30;;
14876;SDS011;69691;48.172;17.070;2024-03-29T08:11:43;2.20;;;2.00;;
14876;SDS011;69691;48.172;17.070;2024-03-29T08:14:09;1.80;;;1.70;;
14876;SDS011;69691;48.172;17.070;2024-03-29T08:16:34;2.20;;;2.00;;
14876;SDS011;69691;48.172;17.070;2024-03-29T08:19:00;2.20;;;2.10;;
14876;SDS011;69691;48.172;17.070;2024-03-29T08:21:26;2.38;;;2.03;;
14876;SDS011;69691;48.172;17.070;2024-03-29T08:23:52;2.50;;;2.30;;
14876;SDS011;69691;48.172;17.070;2024-03-29T08:26:20;2.50;;;2.40;;
14876;SDS011;69691;48.172;17.070;2024-03-29T08:28:47;2.20;;;2.05;;
14876;SDS011;69691;48.172;17.070;2024-03-29T08:31:13;2.30;;;2.10;;
14876;SDS011;69691;48.172;17.070;2024-03-29T08:33:39;2.30;;;2.20;;
14876;SDS011;69691;48.172;17.070;2024-03-29T08:36:08;2.20;;;2.10;;
14876;SDS011;69691;48.172;17.070;2024-03-29T08:38:36;5.13;;;2.08;;
14876;SDS011;69691;48.172;17.070;2024-03-29T08:41:07;2.50;;;2.10;;
14876;SDS011;69691;48.172;17.070;2024-03-29T08:43:34;2.40;;;2.20;;
14876;SDS011;69691;48.172;17.070;2024-03-29T08:46:00;3.25;;;2.22;;
14876;SDS011;69691;48.172;17.070;2024-03-29T08:48:26;2.20;;;2.05;;
14876;SDS011;69691;48.172;17.070;2024-03-29T08:50:52;2.30;;;2.20;;
14876;SDS011;69691;48.172;17.070;2024-03-29T08:53:18;3.70;;;2.00;;
14876;SDS011;69691;48.172;17.070;2024-03-29T08:55:46;2.10;;;1.92;;
14876;SDS011;69691;48.172;17.070;2024-03-29T08:58:13;4.10;;;2.20;;
14876;SDS011;69691;48.172;17.070;2024-03-29T09:00:39;5.88;;;2.45;;
14876;SDS011;69691;48.172;17.070;2024-03-29T09:03:05;2.80;;;2.25;;
14876;SDS011;69691;48.172;17.070;2024-03-29T09:05:31;4.05;;;2.30;;
14876;SDS011;69691;48.172;17.070;2024-03-29T09:07:57;4.80;;;2.42;;
14876;SDS011;69691;48.172;17.070;2024-03-29T09:10:23;6.97;;;2.88;;
14876;SDS011;69691;48.172;17.070;2024-03-29T09:12:52;6.28;;;2.95;;
14876;SDS011;69691;48.172;17.070;2024-03-29T09:15:18;5.38;;;2.42;;
14876;SDS011;69691;48.172;17.070;2024-03-29T09:17:44;6.97;;;2.75;;
14876;SDS011;69691;48.172;17.070;2024-03-29T09:20:13;5.55;;;2.50;;
14876;SDS011;69691;48.172;17.070;2024-03-29T09:22:39;3.50;;;2.53;;
14876;SDS011;69691;48.172;17.070;2024-03-29T09:25:05;7.28;;;2.95;;
14876;SDS011;69691;48.172;17.070;2024-03-29T09:27:34;5.15;;;2.83;;
14876;SDS011;69691;48.172;17.070;2024-03-29T09:30:01;6.93;;;2.97;;
14876;SDS011;69691;48.172;17.070;2024-03-29T09:32:30;5.15;;;2.60;;
14876;SDS011;69691;48.172;17.070;2024-03-29T09:34:57;9.23;;;2.80;;
14876;SDS011;69691;48.172;17.070;2024-03-29T09:37:23;5.68;;;2.97;;
14876;SDS011;69691;48.172;17.070;2024-03-29T09:39:49;9.88;;;3.03;;
14876;SDS011;69691;48.172;17.070;2024-03-29T09:42:18;4.28;;;2.55;;
14876;SDS011;69691;48.172;17.070;2024-03-29T09:44:50;6.88;;;2.80;;
14876;SDS011;69691;48.172;17.070;2024-03-29T09:47:17;5.72;;;2.67;;
14876;SDS011;69691;48.172;17.070;2024-03-29T09:49:46;4.50;;;2.60;;
14876;SDS011;69691;48.172;17.070;2024-03-29T09:52:15;12.57;;;2.97;;
14876;SDS011;69691;48.172;17.070;2024-03-29T09:54:42;7.10;;;2.63;;
14876;SDS011;69691;48.172;17.070;2024-03-29T09:57:08;6.28;;;2.83;;
14876;SDS011;69691;48.172;17.070;2024-03-29T09:59:38;8.15;;;3.05;;
14876;SDS011;69691;48.172;17.070;2024-03-29T10:02:08;6.97;;;3.05;;
14876;SDS011;69691;48.172;17.070;2024-03-29T10:04:42;8.00;;;3.25;;
14876;SDS011;69691;48.172;17.070;2024-03-29T10:07:10;6.03;;;2.70;;
14876;SDS011;69691;48.172;17.070;2024-03-29T10:09:37;6.53;;;3.05;;
14876;SDS011;69691;48.172;17.070;2024-03-29T10:12:04;7.78;;;3.38;;
14876;SDS011;69691;48.172;17.070;2024-03-29T10:14:31;6.90;;;3.22;;
14876;SDS011;69691;48.172;17.070;2024-03-29T10:16:57;5.75;;;2.60;;
14876;SDS011;69691;48.172;17.070;2024-03-29T10:19:23;7.05;;;3.20;;
14876;SDS011;69691;48.172;17.070;2024-03-29T10:21:49;5.65;;;2.88;;
14876;SDS011;69691;48.172;17.070;2024-03-29T10:24:15;7.07;;;2.85;;
14876;SDS011;69691;48.172;17.070;2024-03-29T10:26:44;12.55;;;3.15;;
14876;SDS011;69691;48.172;17.070;2024-03-29T10:29:13;6.40;;;2.80;;
14876;SDS011;69691;48.172;17.070;2024-03-29T10:31:39;5.80;;;2.53;;
14876;SDS011;69691;48.172;17.070;2024-03-29T10:34:05;10.00;;;3.28;;
14876;SDS011;69691;48.172;17.070;2024-03-29T10:36:31;5.30;;;2.72;;
14876;SDS011;69691;48.172;17.070;2024-03-29T10:39:08;10.20;;;3.22;;
14876;SDS011;69691;48.172;17.070;2024-03-29T10:41:38;8.90;;;2.92;;
14876;SDS011;69691;48.172;17.070;2024-03-29T10:44:09;8.15;;;3.20;;
14876;SDS011;69691;48.172;17.070;2024-03-29T10:46:37;6.68;;;2.97;;
14876;SDS011;69691;48.172;17.070;2024-03-29T10:49:07;4.20;;;2.55;;
14876;SDS011;69691;48.172;17.070;2024-03-29T10:51:38;9.35;;;2.90;;
14876;SDS011;69691;48.172;17.070;2024-03-29T10:54:05;10.32;;;3.17;;
14876;SDS011;69691;48.172;17.070;2024-03-29T10:56:42;7.93;;;3.53;;
14876;SDS011;69691;48.172;17.070;2024-03-29T10:59:16;5.38;;;3.22;;
14876;SDS011;69691;48.172;17.070;2024-03-29T11:02:06;7.22;;;3.08;;
14876;SDS011;69691;48.172;17.070;2024-03-29T11:04:39;8.25;;;3.03;;
14876;SDS011;69691;48.172;17.070;2024-03-29T11:07:07;7.20;;;2.97;;
14876;SDS011;69691;48.172;17.070;2024-03-29T11:09:41;7.68;;;2.90;;
14876;SDS011;69691;48.172;17.070;2024-03-29T11:12:08;5.22;;;2.80;;
14876;SDS011;69691;48.172;17.070;2024-03-29T11:14:39;10.23;;;3.40;;
14876;SDS011;69691;48.172;17.070;2024-03-29T11:17:11;6.97;;;3.10;;
14876;SDS011;69691;48.172;17.070;2024-03-29T11:19:40;9.93;;;3.28;;
14876;SDS011;69691;48.172;17.070;2024-03-29T11:22:06;4.25;;;3.15;;
14876;SDS011;69691;48.172;17.070;2024-03-29T11:24:32;7.07;;;3.50;;
14876;SDS011;69691;48.172;17.070;2024-03-29T11:27:10;8.77;;;3.30;;
14876;SDS011;69691;48.172;17.070;2024-03-29T11:29:36;9.10;;;3.25;;
14876;SDS011;69691;48.172;17.070;2024-03-29T11:32:08;7.93;;;3.67;;
14876;SDS011;69691;48.172;17.070;2024-03-29T11:34:34;12.45;;;3.38;;
14876;SDS011;69691;48.172;17.070;2024-03-29T11:37:08;10.65;;;3.28;;
14876;SDS011;69691;48.172;17.070;2024-03-29T11:39:36;7.90;;;2.88;;
14876;SDS011;69691;48.172;17.070;2024-03-29T11:42:02;10.63;;;3.60;;
14876;SDS011;69691;48.172;17.070;2024-03-29T11:44:28;9.32;;;3.65;;
14876;SDS011;69691;48.172;17.070;2024-03-29T11:46:56;7.35;;;3.03;;
14876;SDS011;69691;48.172;17.070;2024-03-29T11:49:24;8.10;;;3.30;;
14876;SDS011;69691;48.172;17.070;2024-03-29T11:51:50;9.93;;;3.40;;
14876;SDS011;69691;48.172;17.070;2024-03-29T11:54:15;11.23;;;3.80;;
14876;SDS011;69691;48.172;17.070;2024-03-29T11:56:42;7.97;;;3.28;;
14876;SDS011;69691;48.172;17.070;2024-03-29T11:59:08;10.57;;;4.00;;
14876;SDS011;69691;48.172;17.070;2024-03-29T12:01:35;7.78;;;3.70;;
14876;SDS011;69691;48.172;17.070;2024-03-29T12:04:04;9.88;;;3.80;;
14876;SDS011;69691;48.172;17.070;2024-03-29T12:06:30;9.18;;;4.07;;
14876;SDS011;69691;48.172;17.070;2024-03-29T12:08:56;8.63;;;3.95;;
14876;SDS011;69691;48.172;17.070;2024-03-29T12:11:22;12.20;;;3.90;;
14876;SDS011;69691;48.172;17.070;2024-03-29T12:13:49;9.88;;;3.75;;
14876;SDS011;69691;48.172;17.070;2024-03-29T12:16:16;9.52;;;3.55;;
14876;SDS011;69691;48.172;17.070;2024-03-29T12:18:46;9.95;;;3.30;;
14876;SDS011;69691;48.172;17.070;2024-03-29T12:21:13;9.10;;;3.30;;
14876;SDS011;69691;48.172;17.070;2024-03-29T12:23:46;7.05;;;3.15;;
14876;SDS011;69691;48.172;17.070;2024-03-29T12:26:14;7.32;;;3.47;;
14876;SDS011;69691;48.172;17.070;2024-03-29T12:28:40;9.40;;;4.10;;
14876;SDS011;69691;48.172;17.070;2024-03-29T12:31:08;9.27;;;3.78;;
14876;SDS011;69691;48.172;17.070;2024-03-29T12:33:34;11.30;;;3.80;;
14876;SDS011;69691;48.172;17.070;2024-03-29T12:36:00;7.30;;;3.50;;
14876;SDS011;69691;48.172;17.070;2024-03-29T12:38:26;7.35;;;4.18;;
14876;SDS011;69691;48.172;17.070;2024-03-29T12:40:53;7.22;;;3.47;;
14876;SDS011;69691;48.172;17.070;2024-03-29T12:43:21;7.07;;;3.70;;
14876;SDS011;69691;48.172;17.070;2024-03-29T12:45:48;6.78;;;3.42;;
14876;SDS011;69691;48.172;17.070;2024-03-29T12:48:16;5.72;;;3.25;;
14876;SDS011;69691;48.172;17.070;2024-03-29T12:50:50;11.27;;;3.33;;
14876;SDS011;69691;48.172;17.070;2024-03-29T12:53:18;6.43;;;3.53;;
14876;SDS011;69691;48.172;17.070;2024-03-29T12:55:45;10.10;;;3.72;;
14876;SDS011;69691;48.172;17.070;2024-03-29T12:58:13;11.40;;;4.28;;
14876;SDS011;69691;48.172;17.070;2024-03-29T13:00:42;9.27;;;3.35;;
14876;SDS011;69691;48.172;17.070;2024-03-29T13:03:09;9.20;;;3.08;;
14876;SDS011;69691;48.172;17.070;2024-03-29T13:05:36;7.22;;;3.88;;
14876;SDS011;69691;48.172;17.070;2024-03-29T13:08:06;6.97;;;3.28;;
14876;SDS011;69691;48.172;17.070;2024-03-29T13:10:38;4.27;;;3.40;;
14876;SDS011;69691;48.172;17.070;2024-03-29T13:13:04;8.68;;;3.85;;
14876;SDS011;69691;48.172;17.070;2024-03-29T13:15:32;10.73;;;3.45;;
14876;SDS011;69691;48.172;17.070;2024-03-29T13:18:03;6.93;;;3.40;;
14876;SDS011;69691;48.172;17.070;2024-03-29T13:20:31;7.47;;;3.72;;
14876;SDS011;69691;48.172;17.070;2024-03-29T13:23:02;10.23;;;3.70;;
14876;SDS011;69691;48.172;17.070;2024-03-29T13:25:28;8.02;;;4.32;;
14876;SDS011;69691;48.172;17.070;2024-03-29T13:27:54;10.20;;;3.63;;
14876;SDS011;69691;48.172;17.070;2024-03-29T13:30:21;8.55;;;3.40;;
14876;SDS011;69691;48.172;17.070;2024-03-29T13:32:49;9.90;;;3.90;;
14876;SDS011;69691;48.172;17.070;2024-03-29T13:35:15;5.63;;;3.13;;
14876;SDS011;69691;48.172;17.070;2024-03-29T13:37:42;5.85;;;2.88;;
14876;SDS011;69691;48.172;17.070;2024-03-29T13:40:12;8.55;;;3.45;;
14876;SDS011;69691;48.172;17.070;2024-03-29T13:42:39;5.20;;;2.80;;
14876;SDS011;69691;48.172;17.070;2024-03-29T13:45:06;10.75;;;3.10;;
14876;SDS011;69691;48.172;17.070;2024-03-29T13:47:38;10.85;;;3.45;;
14876;SDS011;69691;48.172;17.070;2024-03-29T13:50:06;7.22;;;2.80;;
14876;SDS011;69691;48.172;17.070;2024-03-29T13:52:34;6.13;;;3.00;;
14876;SDS011;69691;48.172;17.070;2024-03-29T13:55:01;13.05;;;3.47;;
14876;SDS011;69691;48.172;17.070;2024-03-29T13:57:28;5.82;;;2.90;;
14876;SDS011;69691;48.172;17.070;2024-03-29T13:59:56;10.65;;;3.55;;
14876;SDS011;69691;48.172;17.070;2024-03-29T14:02:26;6.78;;;3.83;;
14876;SDS011;69691;48.172;17.070;2024-03-29T14:04:53;7.75;;;3.47;;
14876;SDS011;69691;48.172;17.070;2024-03-29T14:07:20;6.82;;;3.38;;
14876;SDS011;69691;48.172;17.070;2024-03-29T14:09:49;9.13;;;3.15;;
14876;SDS011;69691;48.172;17.070;2024-03-29T14:12:15;10.70;;;3.20;;
14876;SDS011;69691;48.172;17.070;2024-03-29T14:14:43;5.15;;;3.50;;
14876;SDS011;69691;48.172;17.070;2024-03-29T14:17:13;10.38;;;3.85;;
14876;SDS011;69691;48.172;17.070;2024-03-29T14:19:39;6.22;;;3.17;;
14876;SDS011;69691;48.172;17.070;2024-03-29T14:22:06;7.97;;;3.30;;
14876;SDS011;69691;48.172;17.070;2024-03-29T14:24:33;11.82;;;3.33;;
14876;SDS011;69691;48.172;17.070;2024-03-29T14:27:02;6.13;;;3.13;;
14876;SDS011;69691;48.172;17.070;2024-03-29T14:29:29;7.10;;;3.30;;
14876;SDS011;69691;48.172;17.070;2024-03-29T14:31:56;11.13;;;3.72;;
14876;SDS011;69691;48.172;17.070;2024-03-29T14:34:22;7.00;;;3.22;;